sensor_id;sensor_type;location;lat;lon;timestamp;P1;durP1;ratioP1;P2;durP2;ratioP2
6537;SDS011;3302;52.508;13.454;2023-12-14T00:00:22;14.00;;;9.27;;
6537;SDS011;3302;52.508;13.454;2023-12-14T00:02:48;13.47;;;9.77;;
6537;SDS011;3302;52.508;13.454;2023-12-14T00:05:14;17.57;;;10.70;;
6537;SDS011;3302;52.508;13.454;2023-12-14T00:07:40;13.83;;;9.13;;
6537;SDS011;3302;52.508;13.454;2023-12-14T00:10:06;14.03;;;9.20;;
6537;SDS011;3302;52.508;13.454;2023-12-14T00:12:32;14.33;;;9.20;;
6537;SDS011;3302;52.508;13.454;2023-12-14T00:14:58;17.13;;;9.80;;
6537;SDS011;3302;52.508;13.454;2023-12-14T00:17:24;15.73;;;9.97;;
6537;SDS011;3302;52.508;13.454;2023-12-14T00:19:50;14.63;;;9.70;;
6537;SDS011;3302;52.508;13.454;2023-12-14T00:22:15;16.97;;;9.80;;
6537;SDS011;3302;52.508;13.454;2023-12-14T00:24:41;15.17;;;9.03;;
6537;SDS011;3302;52.508;13.454;2023-12-14T00:27:07;15.63;;;8.37;;
6537;SDS011;3302;52.508;13.454;2023-12-14T00:29:33;15.83;;;9.63;;
6537;SDS011;3302;52.508;13.454;2023-12-14T00:32:00;14.10;;;9.20;;
6537;SDS011;3302;52.508;13.454;2023-12-14T00:34:26;14.97;;;8.80;;
6537;SDS011;3302;52.508;13.454;2023-12-14T00:36:52;14.07;;;8.53;;
6537;SDS011;3302;52.508;13.454;2023-12-14T00:39:18;15.93;;;9.20;;
6537;SDS011;3302;52.508;13.454;2023-12-14T00:41:44;15.20;;;9.37;;
6537;SDS011;3302;52.508;13.454;2023-12-14T00:44:09;13.67;;;9.07;;
6537;SDS011;3302;52.508;13.454;2023-12-14T00:46:35;13.63;;;8.20;;
6537;SDS011;3302;52.508;13.454;2023-12-14T00:49:01;13.97;;;9.10;;
6537;SDS011;3302;52.508;13.454;2023-12-14T00:51:27;15.43;;;9.10;;
6537;SDS011;3302;52.508;13.454;2023-12-14T00:53:53;13.17;;;9.13;;
6537;SDS011;3302;52.508;13.454;2023-12-14T00:56:19;15.67;;;9.03;;
6537;SDS011;3302;52.508;13.454;2023-12-14T00:58:44;14.33;;;8.97;;
6537;SDS011;3302;52.508;13.454;2023-12-14T01:01:10;16.10;;;9.73;;
6537;SDS011;3302;52.508;13.454;2023-12-14T01:03:37;15.00;;;9.17;;
6537;SDS011;3302;52.508;13.454;2023-12-14T01:06:03;15.87;;;8.90;;
6537;SDS011;3302;52.508;13.454;2023-12-14T01:08:29;13.57;;;8.93;;
6537;SDS011;3302;52.508;13.454;2023-12-14T01:10:55;13.10;;;8.77;;
6537;SDS011;3302;52.508;13.454;2023-12-14T01:13:21;13.50;;;8.23;;
6537;SDS011;3302;52.508;13.454;2023-12-14T01:15:46;13.87;;;9.00;;
6537;SDS011;3302;52.508;13.454;2023-12-14T01:18:12;12.63;;;8.00;;
6537;SDS011;3302;52.508;13.454;2023-12-14T01:20:38;12.53;;;8.10;;
6537;SDS011;3302;52.508;13.454;2023-12-14T01:23:04;13.30;;;8.50;;
6537;SDS011;3302;52.508;13.454;2023-12-14T01:25:30;13.70;;;8.60;;
6537;SDS011;3302;52.508;13.454;2023-12-14T01:27:55;14.20;;;8.47;;
6537;SDS011;3302;52.508;13.454;2023-12-14T01:30:21;15.63;;;8.93;;
6537;SDS011;3302;52.508;13.454;2023-12-14T01:32:47;10.63;;;7.40;;
6537;SDS011;3302;52.508;13.454;2023-12-14T01:35:13;11.63;;;7.83;;
6537;SDS011;3302;52.508;13.454;2023-12-14T01:37:39;14.30;;;8.17;;
6537;SDS011;3302;52.508;13.454;2023-12-14T01:40:05;11.97;;;7.97;;
6537;SDS011;3302;52.508;13.454;2023-12-14T01:42:31;14.10;;;7.57;;
6537;SDS011;3302;52.508;13.454;2023-12-14T01:44:57;13.47;;;7.70;;
6537;SDS011;3302;52.508;13.454;2023-12-14T01:47:23;13.67;;;7.80;;
6537;SDS011;3302;52.508;13.454;2023-12-14T01:49:49;12.47;;;7.30;;
6537;SDS011;3302;52.508;13.454;2023-12-14T01:52:14;11.87;;;6.93;;
6537;SDS011;3302;52.508;13.454;2023-12-14T01:54:40;12.63;;;8.10;;
6537;SDS011;3302;52.508;13.454;2023-12-14T01:57:06;12.30;;;7.27;;
6537;SDS011;3302;52.508;13.454;2023-12-14T01:59:32;9.90;;;6.87;;
6537;SDS011;3302;52.508;13.454;2023-12-14T02:01:58;9.30;;;6.10;;
6537;SDS011;3302;52.508;13.454;2023-12-14T02:04:25;10.23;;;6.43;;
6537;SDS011;3302;52.508;13.454;2023-12-14T02:06:51;9.53;;;6.23;;
6537;SDS011;3302;52.508;13.454;2023-12-14T02:09:17;9.80;;;6.47;;
6537;SDS011;3302;52.508;13.454;2023-12-14T02:11:43;9.60;;;5.87;;
6537;SDS011;3302;52.508;13.454;2023-12-14T02:14:09;9.93;;;6.00;;
6537;SDS011;3302;52.508;13.454;2023-12-14T02:16:35;8.03;;;6.00;;
6537;SDS011;3302;52.508;13.454;2023-12-14T02:19:03;8.53;;;5.13;;
6537;SDS011;3302;52.508;13.454;2023-12-14T02:21:30;7.73;;;5.30;;
6537;SDS011;3302;52.508;13.454;2023-12-14T02:23:56;7.03;;;5.33;;
6537;SDS011;3302;52.508;13.454;2023-12-14T02:26:22;8.33;;;5.83;;
6537;SDS011;3302;52.508;13.454;2023-12-14T02:28:47;9.23;;;5.73;;
6537;SDS011;3302;52.508;13.454;2023-12-14T02:31:13;9.37;;;5.90;;
6537;SDS011;3302;52.508;13.454;2023-12-14T02:33:39;9.97;;;6.23;;
6537;SDS011;3302;52.508;13.454;2023-12-14T02:36:05;10.87;;;6.60;;
6537;SDS011;3302;52.508;13.454;2023-12-14T02:38:31;10.53;;;7.17;;
6537;SDS011;3302;52.508;13.454;2023-12-14T02:40:57;10.33;;;7.00;;
6537;SDS011;3302;52.508;13.454;2023-12-14T02:43:23;10.53;;;6.50;;
6537;SDS011;3302;52.508;13.454;2023-12-14T02:45:49;11.30;;;7.10;;
6537;SDS011;3302;52.508;13.454;2023-12-14T02:48:15;11.70;;;7.27;;
6537;SDS011;3302;52.508;13.454;2023-12-14T02:50:41;12.50;;;7.37;;
6537;SDS011;3302;52.508;13.454;2023-12-14T02:53:06;11.13;;;7.03;;
6537;SDS011;3302;52.508;13.454;2023-12-14T02:55:32;11.53;;;7.00;;
6537;SDS011;3302;52.508;13.454;2023-12-14T02:57:58;10.67;;;7.23;;
6537;SDS011;3302;52.508;13.454;2023-12-14T03:00:24;12.63;;;7.80;;
6537;SDS011;3302;52.508;13.454;2023-12-14T03:02:50;11.73;;;7.00;;
6537;SDS011;3302;52.508;13.454;2023-12-14T03:05:15;11.07;;;7.33;;
6537;SDS011;3302;52.508;13.454;2023-12-14T03:07:41;12.03;;;7.03;;
6537;SDS011;3302;52.508;13.454;2023-12-14T03:10:07;14.30;;;7.33;;
6537;SDS011;3302;52.508;13.454;2023-12-14T03:12:34;11.60;;;7.27;;
6537;SDS011;3302;52.508;13.454;2023-12-14T03:14:59;10.60;;;6.80;;
6537;SDS011;3302;52.508;13.454;2023-12-14T03:17:25;10.60;;;6.77;;
6537;SDS011;3302;52.508;13.454;2023-12-14T03:19:51;13.47;;;8.00;;
6537;SDS011;3302;52.508;13.454;2023-12-14T03:22:17;12.50;;;7.33;;
6537;SDS011;3302;52.508;13.454;2023-12-14T03:24:43;11.87;;;7.43;;
6537;SDS011;3302;52.508;13.454;2023-12-14T03:27:08;13.87;;;7.93;;
6537;SDS011;3302;52.508;13.454;2023-12-14T03:29:34;12.07;;;7.53;;
6537;SDS011;3302;52.508;13.454;2023-12-14T03:32:00;13.37;;;7.40;;
6537;SDS011;3302;52.508;13.454;2023-12-14T03:34:26;13.70;;;7.73;;
6537;SDS011;3302;52.508;13.454;2023-12-14T03:36:52;11.03;;;7.27;;
6537;SDS011;3302;52.508;13.454;2023-12-14T03:39:18;10.30;;;6.90;;
6537;SDS011;3302;52.508;13.454;2023-12-14T03:41:44;9.53;;;6.97;;
6537;SDS011;3302;52.508;13.454;2023-12-14T03:44:10;11.03;;;6.97;;
6537;SDS011;3302;52.508;13.454;2023-12-14T03:46:36;10.87;;;6.80;;
6537;SDS011;3302;52.508;13.454;2023-12-14T03:49:02;12.73;;;6.90;;
6537;SDS011;3302;52.508;13.454;2023-12-14T03:51:29;10.43;;;6.70;;
6537;SDS011;3302;52.508;13.454;2023-12-14T03:53:55;9.63;;;6.67;;
6537;SDS011;3302;52.508;13.454;2023-12-14T03:56:21;11.20;;;6.53;;
6537;SDS011;3302;52.508;13.454;2023-12-14T03:58:47;11.20;;;6.50;;
6537;SDS011;3302;52.508;13.454;2023-12-14T04:01:19;9.03;;;5.97;;
6537;SDS011;3302;52.508;13.454;2023-12-14T04:03:46;12.27;;;7.00;;
6537;SDS011;3302;52.508;13.454;2023-12-14T04:06:12;11.67;;;6.87;;
6537;SDS011;3302;52.508;13.454;2023-12-14T04:08:38;9.20;;;6.33;;
6537;SDS011;3302;52.508;13.454;2023-12-14T04:11:05;9.90;;;5.90;;
6537;SDS011;3302;52.508;13.454;2023-12-14T04:13:31;9.80;;;5.77;;
6537;SDS011;3302;52.508;13.454;2023-12-14T04:15:57;9.93;;;6.17;;
6537;SDS011;3302;52.508;13.454;2023-12-14T04:18:23;8.63;;;5.93;;
6537;SDS011;3302;52.508;13.454;2023-12-14T04:20:50;8.27;;;5.80;;
6537;SDS011;3302;52.508;13.454;2023-12-14T04:23:16;11.07;;;6.67;;
6537;SDS011;3302;52.508;13.454;2023-12-14T04:25:42;9.87;;;6.03;;
6537;SDS011;3302;52.508;13.454;2023-12-14T04:28:07;9.50;;;5.53;;
6537;SDS011;3302;52.508;13.454;2023-12-14T04:30:33;10.27;;;6.47;;
6537;SDS011;3302;52.508;13.454;2023-12-14T04:32:59;10.97;;;6.40;;
6537;SDS011;3302;52.508;13.454;2023-12-14T04:35:25;9.27;;;6.40;;
6537;SDS011;3302;52.508;13.454;2023-12-14T04:37:51;8.80;;;6.50;;
6537;SDS011;3302;52.508;13.454;2023-12-14T04:40:16;7.13;;;5.77;;
6537;SDS011;3302;52.508;13.454;2023-12-14T04:42:42;10.10;;;5.90;;
6537;SDS011;3302;52.508;13.454;2023-12-14T04:45:08;10.17;;;5.87;;
6537;SDS011;3302;52.508;13.454;2023-12-14T04:47:34;7.43;;;5.83;;
6537;SDS011;3302;52.508;13.454;2023-12-14T04:50:01;10.57;;;5.87;;
6537;SDS011;3302;52.508;13.454;2023-12-14T04:52:27;9.13;;;5.57;;
6537;SDS011;3302;52.508;13.454;2023-12-14T04:54:53;7.77;;;5.27;;
6537;SDS011;3302;52.508;13.454;2023-12-14T04:57:19;8.27;;;6.07;;
6537;SDS011;3302;52.508;13.454;2023-12-14T04:59:45;8.43;;;6.03;;
6537;SDS011;3302;52.508;13.454;2023-12-14T05:02:11;8.73;;;5.77;;
6537;SDS011;3302;52.508;13.454;2023-12-14T05:04:36;9.10;;;6.10;;
6537;SDS011;3302;52.508;13.454;2023-12-14T05:07:02;8.57;;;5.40;;
6537;SDS011;3302;52.508;13.454;2023-12-14T05:09:28;9.27;;;6.87;;
6537;SDS011;3302;52.508;13.454;2023-12-14T05:11:54;9.70;;;5.63;;
6537;SDS011;3302;52.508;13.454;2023-12-14T05:14:20;13.07;;;6.57;;
6537;SDS011;3302;52.508;13.454;2023-12-14T05:16:46;9.17;;;6.23;;
6537;SDS011;3302;52.508;13.454;2023-12-14T05:19:12;9.60;;;6.03;;
6537;SDS011;3302;52.508;13.454;2023-12-14T05:21:38;9.77;;;6.37;;
6537;SDS011;3302;52.508;13.454;2023-12-14T05:24:04;9.03;;;6.50;;
6537;SDS011;3302;52.508;13.454;2023-12-14T05:26:30;9.77;;;6.20;;
6537;SDS011;3302;52.508;13.454;2023-12-14T05:28:56;8.83;;;6.37;;
6537;SDS011;3302;52.508;13.454;2023-12-14T05:31:22;8.27;;;6.57;;
6537;SDS011;3302;52.508;13.454;2023-12-14T05:33:48;9.87;;;7.03;;
6537;SDS011;3302;52.508;13.454;2023-12-14T05:36:13;8.10;;;6.17;;
6537;SDS011;3302;52.508;13.454;2023-12-14T05:38:39;9.33;;;6.83;;
6537;SDS011;3302;52.508;13.454;2023-12-14T05:41:06;8.60;;;6.30;;
6537;SDS011;3302;52.508;13.454;2023-12-14T05:43:32;9.87;;;7.10;;
6537;SDS011;3302;52.508;13.454;2023-12-14T05:45:58;11.40;;;7.10;;
6537;SDS011;3302;52.508;13.454;2023-12-14T05:48:24;8.23;;;6.30;;
6537;SDS011;3302;52.508;13.454;2023-12-14T05:50:52;8.77;;;6.67;;
6537;SDS011;3302;52.508;13.454;2023-12-14T05:53:18;8.40;;;6.73;;
6537;SDS011;3302;52.508;13.454;2023-12-14T05:55:43;7.70;;;5.83;;
6537;SDS011;3302;52.508;13.454;2023-12-14T05:58:09;8.93;;;6.37;;
6537;SDS011;3302;52.508;13.454;2023-12-14T06:00:35;8.13;;;5.93;;
6537;SDS011;3302;52.508;13.454;2023-12-14T06:03:01;8.33;;;6.27;;
6537;SDS011;3302;52.508;13.454;2023-12-14T06:05:28;8.20;;;6.20;;
6537;SDS011;3302;52.508;13.454;2023-12-14T06:07:53;6.73;;;5.50;;
6537;SDS011;3302;52.508;13.454;2023-12-14T06:10:19;6.30;;;5.17;;
6537;SDS011;3302;52.508;13.454;2023-12-14T06:12:46;8.43;;;6.17;;
6537;SDS011;3302;52.508;13.454;2023-12-14T06:15:12;7.10;;;5.33;;
6537;SDS011;3302;52.508;13.454;2023-12-14T06:17:38;7.37;;;5.43;;
6537;SDS011;3302;52.508;13.454;2023-12-14T06:20:06;7.17;;;5.27;;
6537;SDS011;3302;52.508;13.454;2023-12-14T06:22:35;6.33;;;5.40;;
6537;SDS011;3302;52.508;13.454;2023-12-14T06:25:02;7.77;;;5.57;;
6537;SDS011;3302;52.508;13.454;2023-12-14T06:27:28;7.43;;;5.40;;
6537;SDS011;3302;52.508;13.454;2023-12-14T06:29:54;6.73;;;5.43;;
6537;SDS011;3302;52.508;13.454;2023-12-14T06:32:20;6.70;;;5.33;;
6537;SDS011;3302;52.508;13.454;2023-12-14T06:34:47;7.33;;;5.83;;
6537;SDS011;3302;52.508;13.454;2023-12-14T06:37:13;6.93;;;5.63;;
6537;SDS011;3302;52.508;13.454;2023-12-14T06:39:43;7.10;;;5.93;;
6537;SDS011;3302;52.508;13.454;2023-12-14T06:42:09;6.90;;;5.40;;
6537;SDS011;3302;52.508;13.454;2023-12-14T06:44:34;7.30;;;5.87;;
6537;SDS011;3302;52.508;13.454;2023-12-14T06:47:00;8.00;;;5.83;;
6537;SDS011;3302;52.508;13.454;2023-12-14T06:49:26;7.63;;;6.33;;
6537;SDS011;3302;52.508;13.454;2023-12-14T06:51:52;7.97;;;5.93;;
6537;SDS011;3302;52.508;13.454;2023-12-14T06:54:18;8.13;;;6.07;;
6537;SDS011;3302;52.508;13.454;2023-12-14T06:56:44;7.73;;;6.20;;
6537;SDS011;3302;52.508;13.454;2023-12-14T06:59:10;7.73;;;6.53;;
6537;SDS011;3302;52.508;13.454;2023-12-14T07:01:36;8.53;;;6.53;;
6537;SDS011;3302;52.508;13.454;2023-12-14T07:04:01;8.83;;;6.70;;
6537;SDS011;3302;52.508;13.454;2023-12-14T07:06:30;9.50;;;6.50;;
6537;SDS011;3302;52.508;13.454;2023-12-14T07:08:56;9.30;;;6.73;;
6537;SDS011;3302;52.508;13.454;2023-12-14T07:11:22;8.63;;;6.47;;
6537;SDS011;3302;52.508;13.454;2023-12-14T07:13:48;8.97;;;6.83;;
6537;SDS011;3302;52.508;13.454;2023-12-14T07:16:14;10.47;;;6.90;;
6537;SDS011;3302;52.508;13.454;2023-12-14T07:18:41;7.93;;;6.67;;
6537;SDS011;3302;52.508;13.454;2023-12-14T07:21:07;9.20;;;6.50;;
6537;SDS011;3302;52.508;13.454;2023-12-14T07:23:33;8.43;;;6.73;;
6537;SDS011;3302;52.508;13.454;2023-12-14T07:26:00;8.00;;;6.00;;
6537;SDS011;3302;52.508;13.454;2023-12-14T07:28:26;8.53;;;6.77;;
6537;SDS011;3302;52.508;13.454;2023-12-14T07:30:52;8.47;;;6.50;;
6537;SDS011;3302;52.508;13.454;2023-12-14T07:33:18;9.90;;;6.53;;
6537;SDS011;3302;52.508;13.454;2023-12-14T07:35:44;9.27;;;6.50;;
6537;SDS011;3302;52.508;13.454;2023-12-14T07:38:10;9.37;;;7.17;;
6537;SDS011;3302;52.508;13.454;2023-12-14T07:40:36;10.43;;;7.10;;
6537;SDS011;3302;52.508;13.454;2023-12-14T07:43:04;9.10;;;7.47;;
6537;SDS011;3302;52.508;13.454;2023-12-14T07:45:30;9.80;;;7.17;;
6537;SDS011;3302;52.508;13.454;2023-12-14T07:47:55;9.67;;;7.27;;
6537;SDS011;3302;52.508;13.454;2023-12-14T07:50:21;10.43;;;7.63;;
6537;SDS011;3302;52.508;13.454;2023-12-14T07:52:47;10.17;;;7.40;;
6537;SDS011;3302;52.508;13.454;2023-12-14T07:55:13;10.47;;;7.83;;
6537;SDS011;3302;52.508;13.454;2023-12-14T07:57:39;9.03;;;6.93;;
6537;SDS011;3302;52.508;13.454;2023-12-14T08:00:06;11.57;;;7.80;;
6537;SDS011;3302;52.508;13.454;2023-12-14T08:02:33;9.90;;;7.87;;
6537;SDS011;3302;52.508;13.454;2023-12-14T08:04:59;10.27;;;7.67;;
6537;SDS011;3302;52.508;13.454;2023-12-14T08:07:25;10.50;;;7.77;;
6537;SDS011;3302;52.508;13.454;2023-12-14T08:09:57;11.03;;;7.97;;
6537;SDS011;3302;52.508;13.454;2023-12-14T08:12:23;11.50;;;8.33;;
6537;SDS011;3302;52.508;13.454;2023-12-14T08:14:49;10.93;;;8.40;;
6537;SDS011;3302;52.508;13.454;2023-12-14T08:17:16;9.87;;;7.80;;
6537;SDS011;3302;52.508;13.454;2023-12-14T08:19:42;11.53;;;8.43;;
6537;SDS011;3302;52.508;13.454;2023-12-14T08:22:09;10.57;;;7.80;;
6537;SDS011;3302;52.508;13.454;2023-12-14T08:24:39;10.30;;;8.20;;
6537;SDS011;3302;52.508;13.454;2023-12-14T08:27:05;11.43;;;8.40;;
6537;SDS011;3302;52.508;13.454;2023-12-14T08:29:31;10.50;;;8.50;;
6537;SDS011;3302;52.508;13.454;2023-12-14T08:31:57;10.77;;;7.93;;
6537;SDS011;3302;52.508;13.454;2023-12-14T08:34:24;12.13;;;8.90;;
6537;SDS011;3302;52.508;13.454;2023-12-14T08:36:50;9.87;;;8.00;;
6537;SDS011;3302;52.508;13.454;2023-12-14T08:39:16;10.13;;;8.37;;
6537;SDS011;3302;52.508;13.454;2023-12-14T08:41:42;9.53;;;7.97;;
6537;SDS011;3302;52.508;13.454;2023-12-14T08:44:10;11.00;;;7.90;;
6537;SDS011;3302;52.508;13.454;2023-12-14T08:46:40;10.47;;;8.57;;
6537;SDS011;3302;52.508;13.454;2023-12-14T08:49:11;10.47;;;7.63;;
6537;SDS011;3302;52.508;13.454;2023-12-14T08:51:37;10.77;;;8.23;;
6537;SDS011;3302;52.508;13.454;2023-12-14T08:54:05;10.77;;;7.90;;
6537;SDS011;3302;52.508;13.454;2023-12-14T08:56:31;9.50;;;7.33;;
6537;SDS011;3302;52.508;13.454;2023-12-14T08:58:57;9.77;;;8.20;;
6537;SDS011;3302;52.508;13.454;2023-12-14T09:01:24;10.17;;;7.90;;
6537;SDS011;3302;52.508;13.454;2023-12-14T09:03:50;10.43;;;8.23;;
6537;SDS011;3302;52.508;13.454;2023-12-14T09:06:17;10.37;;;8.17;;
6537;SDS011;3302;52.508;13.454;2023-12-14T09:08:46;11.63;;;8.13;;
6537;SDS011;3302;52.508;13.454;2023-12-14T09:11:12;10.47;;;7.70;;
6537;SDS011;3302;52.508;13.454;2023-12-14T09:13:38;9.93;;;7.17;;
6537;SDS011;3302;52.508;13.454;2023-12-14T09:16:04;10.97;;;7.87;;
6537;SDS011;3302;52.508;13.454;2023-12-14T09:18:30;8.73;;;7.13;;
6537;SDS011;3302;52.508;13.454;2023-12-14T09:20:56;9.57;;;7.80;;
6537;SDS011;3302;52.508;13.454;2023-12-14T09:23:22;9.90;;;7.70;;
6537;SDS011;3302;52.508;13.454;2023-12-14T09:25:47;10.37;;;7.40;;
6537;SDS011;3302;52.508;13.454;2023-12-14T09:28:15;9.77;;;7.40;;
6537;SDS011;3302;52.508;13.454;2023-12-14T09:30:40;8.93;;;6.70;;
6537;SDS011;3302;52.508;13.454;2023-12-14T09:33:06;8.20;;;6.53;;
6537;SDS011;3302;52.508;13.454;2023-12-14T09:35:34;8.93;;;7.00;;
6537;SDS011;3302;52.508;13.454;2023-12-14T09:38:02;9.37;;;7.30;;
6537;SDS011;3302;52.508;13.454;2023-12-14T09:40:29;9.43;;;6.53;;
6537;SDS011;3302;52.508;13.454;2023-12-14T09:42:55;9.63;;;7.17;;
6537;SDS011;3302;52.508;13.454;2023-12-14T09:45:23;8.93;;;7.50;;
6537;SDS011;3302;52.508;13.454;2023-12-14T09:47:52;8.00;;;6.80;;
6537;SDS011;3302;52.508;13.454;2023-12-14T09:50:19;9.10;;;6.87;;
6537;SDS011;3302;52.508;13.454;2023-12-14T09:52:46;8.07;;;6.37;;
6537;SDS011;3302;52.508;13.454;2023-12-14T09:55:14;7.93;;;6.53;;
6537;SDS011;3302;52.508;13.454;2023-12-14T09:57:40;9.90;;;6.87;;
6537;SDS011;3302;52.508;13.454;2023-12-14T10:00:06;8.13;;;6.57;;
6537;SDS011;3302;52.508;13.454;2023-12-14T10:02:36;10.37;;;8.33;;
6537;SDS011;3302;52.508;13.454;2023-12-14T10:05:02;7.87;;;6.30;;
6537;SDS011;3302;52.508;13.454;2023-12-14T10:07:30;8.20;;;6.43;;
6537;SDS011;3302;52.508;13.454;2023-12-14T10:09:56;8.03;;;6.10;;
6537;SDS011;3302;52.508;13.454;2023-12-14T10:12:52;10.50;;;6.73;;
6537;SDS011;3302;52.508;13.454;2023-12-14T10:15:20;8.30;;;5.93;;
6537;SDS011;3302;52.508;13.454;2023-12-14T10:17:53;8.47;;;6.43;;
6537;SDS011;3302;52.508;13.454;2023-12-14T10:20:19;8.97;;;6.87;;
6537;SDS011;3302;52.508;13.454;2023-12-14T10:22:50;9.27;;;6.97;;
6537;SDS011;3302;52.508;13.454;2023-12-14T10:25:18;9.87;;;7.17;;
6537;SDS011;3302;52.508;13.454;2023-12-14T10:27:48;9.40;;;7.17;;
6537;SDS011;3302;52.508;13.454;2023-12-14T10:30:19;10.97;;;7.70;;
6537;SDS011;3302;52.508;13.454;2023-12-14T10:32:47;9.93;;;7.60;;
6537;SDS011;3302;52.508;13.454;2023-12-14T10:35:17;11.67;;;8.47;;
6537;SDS011;3302;52.508;13.454;2023-12-14T10:37:44;10.07;;;7.37;;
6537;SDS011;3302;52.508;13.454;2023-12-14T10:40:14;10.87;;;7.90;;
6537;SDS011;3302;52.508;13.454;2023-12-14T10:42:42;9.80;;;7.57;;
6537;SDS011;3302;52.508;13.454;2023-12-14T10:45:12;10.00;;;7.73;;
6537;SDS011;3302;52.508;13.454;2023-12-14T10:47:44;9.87;;;7.83;;
6537;SDS011;3302;52.508;13.454;2023-12-14T10:50:12;9.57;;;7.47;;
6537;SDS011;3302;52.508;13.454;2023-12-14T10:52:39;9.90;;;7.70;;
6537;SDS011;3302;52.508;13.454;2023-12-14T10:55:31;10.63;;;7.87;;
6537;SDS011;3302;52.508;13.454;2023-12-14T10:57:59;11.20;;;7.80;;
6537;SDS011;3302;52.508;13.454;2023-12-14T11:00:26;10.70;;;7.87;;
6537;SDS011;3302;52.508;13.454;2023-12-14T11:02:52;10.47;;;7.73;;
6537;SDS011;3302;52.508;13.454;2023-12-14T11:05:18;12.30;;;8.67;;
6537;SDS011;3302;52.508;13.454;2023-12-14T11:07:55;11.00;;;8.17;;
6537;SDS011;3302;52.508;13.454;2023-12-14T11:10:27;12.13;;;8.33;;
6537;SDS011;3302;52.508;13.454;2023-12-14T11:13:03;11.27;;;7.53;;
6537;SDS011;3302;52.508;13.454;2023-12-14T11:15:34;9.57;;;7.67;;
6537;SDS011;3302;52.508;13.454;2023-12-14T11:23:10;10.73;;;7.93;;
6537;SDS011;3302;52.508;13.454;2023-12-14T11:25:43;10.47;;;8.27;;
6537;SDS011;3302;52.508;13.454;2023-12-14T11:28:09;10.87;;;8.33;;
6537;SDS011;3302;52.508;13.454;2023-12-14T11:30:36;10.93;;;7.70;;
6537;SDS011;3302;52.508;13.454;2023-12-14T11:33:02;11.37;;;7.90;;
6537;SDS011;3302;52.508;13.454;2023-12-14T11:35:29;9.53;;;7.17;;
6537;SDS011;3302;52.508;13.454;2023-12-14T11:37:55;9.97;;;7.77;;
6537;SDS011;3302;52.508;13.454;2023-12-14T11:40:27;9.40;;;7.20;;
6537;SDS011;3302;52.508;13.454;2023-12-14T11:43:01;11.27;;;7.70;;
6537;SDS011;3302;52.508;13.454;2023-12-14T11:45:33;9.97;;;7.40;;
6537;SDS011;3302;52.508;13.454;2023-12-14T11:47:59;10.90;;;8.07;;
6537;SDS011;3302;52.508;13.454;2023-12-14T11:50:27;10.03;;;7.83;;
6537;SDS011;3302;52.508;13.454;2023-12-14T11:52:52;10.07;;;7.43;;
6537;SDS011;3302;52.508;13.454;2023-12-14T11:55:18;11.20;;;8.17;;
6537;SDS011;3302;52.508;13.454;2023-12-14T11:57:46;10.20;;;7.67;;
6537;SDS011;3302;52.508;13.454;2023-12-14T12:00:14;9.30;;;7.30;;
6537;SDS011;3302;52.508;13.454;2023-12-14T12:02:40;12.33;;;8.17;;
6537;SDS011;3302;52.508;13.454;2023-12-14T12:05:09;10.70;;;7.73;;
6537;SDS011;3302;52.508;13.454;2023-12-14T12:07:38;8.13;;;6.83;;
6537;SDS011;3302;52.508;13.454;2023-12-14T12:10:09;10.17;;;7.37;;
6537;SDS011;3302;52.508;13.454;2023-12-14T12:12:35;8.97;;;7.70;;
6537;SDS011;3302;52.508;13.454;2023-12-14T12:15:02;9.93;;;7.30;;
6537;SDS011;3302;52.508;13.454;2023-12-14T12:17:28;10.27;;;7.73;;
6537;SDS011;3302;52.508;13.454;2023-12-14T12:19:54;10.07;;;7.60;;
6537;SDS011;3302;52.508;13.454;2023-12-14T12:22:20;10.07;;;7.53;;
6537;SDS011;3302;52.508;13.454;2023-12-14T12:24:46;10.73;;;7.53;;
6537;SDS011;3302;52.508;13.454;2023-12-14T12:27:12;8.87;;;7.03;;
6537;SDS011;3302;52.508;13.454;2023-12-14T12:29:38;9.53;;;7.80;;
6537;SDS011;3302;52.508;13.454;2023-12-14T12:32:03;13.30;;;7.13;;
6537;SDS011;3302;52.508;13.454;2023-12-14T12:34:29;9.03;;;7.03;;
6537;SDS011;3302;52.508;13.454;2023-12-14T12:36:55;8.83;;;6.83;;
6537;SDS011;3302;52.508;13.454;2023-12-14T12:39:22;9.50;;;7.20;;
6537;SDS011;3302;52.508;13.454;2023-12-14T12:41:48;9.60;;;6.93;;
6537;SDS011;3302;52.508;13.454;2023-12-14T12:44:14;10.37;;;7.10;;
6537;SDS011;3302;52.508;13.454;2023-12-14T12:46:40;11.83;;;8.13;;
6537;SDS011;3302;52.508;13.454;2023-12-14T12:49:06;9.27;;;7.83;;
6537;SDS011;3302;52.508;13.454;2023-12-14T12:51:32;8.90;;;7.13;;
6537;SDS011;3302;52.508;13.454;2023-12-14T12:53:58;10.10;;;8.27;;
6537;SDS011;3302;52.508;13.454;2023-12-14T12:56:25;12.20;;;7.23;;
6537;SDS011;3302;52.508;13.454;2023-12-14T12:58:53;9.23;;;7.23;;
6537;SDS011;3302;52.508;13.454;2023-12-14T13:01:20;10.73;;;8.20;;
6537;SDS011;3302;52.508;13.454;2023-12-14T13:03:52;9.27;;;7.07;;
6537;SDS011;3302;52.508;13.454;2023-12-14T13:06:19;8.33;;;6.73;;
6537;SDS011;3302;52.508;13.454;2023-12-14T13:08:46;9.93;;;7.63;;
6537;SDS011;3302;52.508;13.454;2023-12-14T13:11:12;8.30;;;6.87;;
6537;SDS011;3302;52.508;13.454;2023-12-14T13:13:37;9.13;;;7.20;;
6537;SDS011;3302;52.508;13.454;2023-12-14T13:16:04;7.93;;;6.53;;
6537;SDS011;3302;52.508;13.454;2023-12-14T13:18:30;9.43;;;7.07;;
6537;SDS011;3302;52.508;13.454;2023-12-14T13:20:56;10.40;;;7.23;;
6537;SDS011;3302;52.508;13.454;2023-12-14T13:23:22;9.97;;;7.43;;
6537;SDS011;3302;52.508;13.454;2023-12-14T13:25:48;11.07;;;8.73;;
6537;SDS011;3302;52.508;13.454;2023-12-14T13:28:14;11.13;;;8.57;;
6537;SDS011;3302;52.508;13.454;2023-12-14T13:30:41;12.57;;;8.70;;
6537;SDS011;3302;52.508;13.454;2023-12-14T13:33:07;10.73;;;8.03;;
6537;SDS011;3302;52.508;13.454;2023-12-14T13:35:36;13.67;;;8.10;;
6537;SDS011;3302;52.508;13.454;2023-12-14T13:38:02;10.60;;;7.50;;
6537;SDS011;3302;52.508;13.454;2023-12-14T13:40:27;10.93;;;8.27;;
6537;SDS011;3302;52.508;13.454;2023-12-14T13:42:53;9.57;;;7.40;;
6537;SDS011;3302;52.508;13.454;2023-12-14T13:45:19;9.13;;;7.20;;
6537;SDS011;3302;52.508;13.454;2023-12-14T13:47:45;10.33;;;8.20;;
6537;SDS011;3302;52.508;13.454;2023-12-14T13:50:11;9.90;;;7.43;;
6537;SDS011;3302;52.508;13.454;2023-12-14T13:52:38;9.73;;;7.13;;
6537;SDS011;3302;52.508;13.454;2023-12-14T13:55:04;9.27;;;7.40;;
6537;SDS011;3302;52.508;13.454;2023-12-14T13:57:30;11.53;;;7.80;;
6537;SDS011;3302;52.508;13.454;2023-12-14T13:59:56;9.93;;;7.07;;
6537;SDS011;3302;52.508;13.454;2023-12-14T14:02:21;10.00;;;7.83;;
6537;SDS011;3302;52.508;13.454;2023-12-14T14:04:50;11.97;;;8.10;;
6537;SDS011;3302;52.508;13.454;2023-12-14T14:07:17;11.50;;;8.00;;
6537;SDS011;3302;52.508;13.454;2023-12-14T14:09:43;11.20;;;8.33;;
6537;SDS011;3302;52.508;13.454;2023-12-14T14:12:09;10.07;;;7.70;;
6537;SDS011;3302;52.508;13.454;2023-12-14T14:14:35;12.20;;;8.17;;
6537;SDS011;3302;52.508;13.454;2023-12-14T14:17:01;9.20;;;7.30;;
6537;SDS011;3302;52.508;13.454;2023-12-14T14:19:27;10.00;;;6.80;;
6537;SDS011;3302;52.508;13.454;2023-12-14T14:21:53;9.83;;;7.33;;
6537;SDS011;3302;52.508;13.454;2023-12-14T14:24:18;11.50;;;7.40;;
6537;SDS011;3302;52.508;13.454;2023-12-14T14:26:44;10.43;;;7.50;;
6537;SDS011;3302;52.508;13.454;2023-12-14T14:29:10;11.00;;;7.93;;
6537;SDS011;3302;52.508;13.454;2023-12-14T14:31:36;9.03;;;6.97;;
6537;SDS011;3302;52.508;13.454;2023-12-14T14:34:02;10.57;;;7.37;;
6537;SDS011;3302;52.508;13.454;2023-12-14T14:36:30;9.83;;;7.30;;
6537;SDS011;3302;52.508;13.454;2023-12-14T14:38:56;9.37;;;7.40;;
6537;SDS011;3302;52.508;13.454;2023-12-14T14:41:22;10.67;;;8.07;;
6537;SDS011;3302;52.508;13.454;2023-12-14T14:43:48;10.87;;;7.53;;
6537;SDS011;3302;52.508;13.454;2023-12-14T14:46:14;9.43;;;7.20;;
6537;SDS011;3302;52.508;13.454;2023-12-14T14:48:39;9.60;;;7.33;;
6537;SDS011;3302;52.508;13.454;2023-12-14T14:51:05;10.80;;;7.47;;
6537;SDS011;3302;52.508;13.454;2023-12-14T14:53:31;9.83;;;7.40;;
6537;SDS011;3302;52.508;13.454;2023-12-14T14:55:57;11.03;;;7.47;;